Corcovado, Argentina
Current Conditions -  °F | °C
As of 9:00 AM on Friday 19 Dec 2014 (Local Time) from SCAP Reporting Station
Overcast Overcast  
Wind Chill: 42°   Ceiling: 1400
Heat Index: 46°   Visibility: NA
Dew Point: 37°   Wind: 9mph
Humidity: 71%   Direction: 250°WSW
Pressure: 29.71"   Gusts: NA
Location:  43.46°S, 71.09°W
Report Text: SCAP 191200Z AUTO 25008KT 210V270 //// // OVC014 08/03 Q1006
Loading
Personal Weather Stations






























Interactive Weather Map New forecast layout! Learn more

10-Day Weather Forecast

Advertisements
Track Severe Weather on mobile